Flight Track Log - Related Links

Times and Time Zones

All times are in EDT time to prevent confusion due to time zone crossing. See the JIA2208 flight status page for this flight to view local times or setup timezone preferences in your user account.

Time Position Orientation Groundspeed Altitude Reporting Facility
EDT Latitude Longitude Course Direction KTS MPH feet Rate Location/Type
Wed 05:41:42 AM 33.3853 -81.9042 48° Northeast 343 395 4,900  Level Atlanta Center
Wed 05:42:00 AM 33.8504 -82.0667 351° North  Level FlightAware Approximate
Wed 05:42:42 AM 33.4489 -81.9550 326° Northwest 254 292 7,200  Level Atlanta Center
Wed 05:43:00 AM 34.0135 -82.0933 354° North  Level FlightAware Approximate
Wed 05:43:42 AM 33.5144 -82.0081 326° Northwest 260 299 9,700  Level Atlanta Center
Wed 05:44:00 AM 34.1751 -82.1295 347° North  Level FlightAware Approximate
Wed 05:44:42 AM 33.5983 -82.0286 348° North 284 327 11,500  Level Atlanta Center
Wed 05:45:00 AM 34.3022 -82.0697 45° Northeast  Level FlightAware Approximate
Wed 05:45:42 AM 33.6925 -82.0464 351° North 307 353 13,300  Level Atlanta Center
Wed 05:46:00 AM 34.4172 -81.9270 48° Northeast  Level FlightAware Approximate
Wed 05:46:42 AM 33.7972 -82.0639 352° North 339 390 15,300  Level Atlanta Center
Wed 05:47:42 AM 33.8869 -82.0719 356° North 339 390 17,400 1,550 Climbing Atlanta Center
Wed 05:48:42 AM 33.9758 -82.0222 25° Northeast 322 371 18,400 1,000 Climbing Atlanta Center
Wed 05:49:42 AM 34.0628 -81.9675 28° Northeast 339 390 19,400 900 Climbing Atlanta Center
Wed 05:50:42 AM 34.1556 -81.9075 28° Northeast 351 404 20,200 800 Climbing Atlanta Center
Wed 05:51:42 AM 34.2506 -81.8500 27° Northeast 365 420 21,000 -250 Climbing Atlanta Center
Wed 05:52:42 AM 34.3475 -81.7869 28° Northeast 370 426 19,700 -1,550 Descending Atlanta Center
Wed 05:53:42 AM 34.4383 -81.7292 28° Northeast 375 432 17,900 -1,900 Descending Atlanta Center
Wed 05:54:42 AM 34.5269 -81.6739 27° Northeast 363 418 15,900 -2,079 Descending Atlanta Center
Wed 05:55:23 AM 34.5889 -81.6367 26° Northeast 353 406 14,400 -2,000 Descending Atlanta Center
Wed 05:56:30 AM 34.6836 -81.5758 28° Northeast 355 409 12,300 -1,190 Descending Atlanta Center
Wed 05:57:24 AM 34.7556 -81.5183 33° Northeast 336 387 12,000 -149 Descending Atlanta Center
Wed 05:58:31 AM 34.8267 -81.4250 47° Northeast 321 369 12,000  Level Atlanta Center
Wed 05:59:32 AM 34.8875 -81.3444 47° Northeast 327 376 12,000 -94 Level Atlanta Center
Wed 06:00:39 AM 34.9564 -81.2561 46° Northeast 335 386 11,800 -563 Descending Atlanta Center
Wed 06:01:40 AM 35.0214 -81.1728 46° Northeast 333 383 10,800 -1,033 Descending Atlanta Center
Wed 06:02:41 AM 35.0861 -81.0894 46° Northeast 318 366 9,700 -885 Descending Atlanta Center
Wed 06:03:42 AM 35.1544 -81.0642 17° North 294 338 9,000 -945 Descending Atlanta Center
Wed 06:04:48 AM 35.2528 -81.0758 354° North 290 334 7,700 -1,323 Descending Atlanta Center
Wed 06:05:49 AM 35.3300 -81.0833 355° North 272 313 6,200 -836 Descending Atlanta Center
Wed 06:06:50 AM 35.4031 -81.0856 359° North 261 300 6,000 -98 Descending Atlanta Center
Wed 06:07:51 AM 35.4742 -81.0933 355° North 232 267 6,000 -443 Level Atlanta Center
Wed 06:08:52 AM 35.5392 -81.0986 356° North 231 266 5,100 -517 Descending Atlanta Center
Wed 06:09:47 AM 35.5672 -81.0517 54° Northeast 240 276 5,000 -49 Descending Atlanta Center
Wed 06:10:54 AM 35.5136 -80.9975 141° Southeast 242 278 5,000  Level Atlanta Center
Wed 06:11:54 AM 35.4589 -80.9767 163° South 202 232 5,000 -470 Level Atlanta Center
Wed 06:12:49 AM 35.4067 -80.9708 175° South 205 236 4,100 -983 Descending Atlanta Center
Wed 06:13:50 AM 35.3503 -80.9678 177° South 199 229 3,100 -938 Descending Atlanta Center
Wed 06:14:57 AM 35.2958 -80.9647 177° South 165 190 2,100 -797 Descending Atlanta Center
Wed 06:15:58 AM 35.2539 -80.9586 173° South 144 166 1,400 -689 Descending Atlanta Center

Login

Don't have an account? Register now (free) for customized features, flight alerts, and more!